sensor_id;sensor_type;location;lat;lon;timestamp;P1;durP1;ratioP1;P2;durP2;ratioP2
39490;SDS011;25175;50.140;18.990;2022-07-17T00:01:31;13.65;;;6.13;;
39490;SDS011;25175;50.140;18.990;2022-07-17T00:04:33;13.02;;;6.13;;
39490;SDS011;25175;50.140;18.990;2022-07-17T00:07:37;12.20;;;5.70;;
39490;SDS011;25175;50.140;18.990;2022-07-17T00:10:40;10.10;;;5.57;;
39490;SDS011;25175;50.140;18.990;2022-07-17T00:13:43;12.00;;;5.93;;
39490;SDS011;25175;50.140;18.990;2022-07-17T00:16:46;11.57;;;6.05;;
39490;SDS011;25175;50.140;18.990;2022-07-17T00:19:48;13.80;;;6.50;;
39490;SDS011;25175;50.140;18.990;2022-07-17T00:22:51;13.13;;;6.20;;
39490;SDS011;25175;50.140;18.990;2022-07-17T00:25:54;12.30;;;6.30;;
39490;SDS011;25175;50.140;18.990;2022-07-17T00:28:56;12.20;;;5.78;;
39490;SDS011;25175;50.140;18.990;2022-07-17T00:31:58;14.63;;;5.90;;
39490;SDS011;25175;50.140;18.990;2022-07-17T00:35:00;10.38;;;5.68;;
39490;SDS011;25175;50.140;18.990;2022-07-17T00:38:04;14.05;;;5.63;;
39490;SDS011;25175;50.140;18.990;2022-07-17T00:41:06;11.23;;;5.90;;
39490;SDS011;25175;50.140;18.990;2022-07-17T00:44:10;14.48;;;6.68;;
39490;SDS011;25175;50.140;18.990;2022-07-17T00:47:14;15.40;;;7.38;;
39490;SDS011;25175;50.140;18.990;2022-07-17T00:50:17;13.98;;;7.13;;
39490;SDS011;25175;50.140;18.990;2022-07-17T00:53:20;13.00;;;6.78;;
39490;SDS011;25175;50.140;18.990;2022-07-17T00:56:23;14.30;;;6.30;;
39490;SDS011;25175;50.140;18.990;2022-07-17T00:59:26;11.20;;;5.78;;
39490;SDS011;25175;50.140;18.990;2022-07-17T01:02:30;11.30;;;6.20;;
39490;SDS011;25175;50.140;18.990;2022-07-17T01:05:32;11.73;;;6.13;;
39490;SDS011;25175;50.140;18.990;2022-07-17T01:08:36;10.35;;;6.35;;
39490;SDS011;25175;50.140;18.990;2022-07-17T01:11:39;10.15;;;6.03;;
39490;SDS011;25175;50.140;18.990;2022-07-17T01:14:41;12.68;;;6.35;;
39490;SDS011;25175;50.140;18.990;2022-07-17T01:17:44;12.52;;;6.47;;
39490;SDS011;25175;50.140;18.990;2022-07-17T01:20:48;12.40;;;6.60;;
39490;SDS011;25175;50.140;18.990;2022-07-17T01:23:52;10.95;;;5.95;;
39490;SDS011;25175;50.140;18.990;2022-07-17T01:26:54;11.57;;;6.40;;
39490;SDS011;25175;50.140;18.990;2022-07-17T01:29:57;9.75;;;5.70;;
39490;SDS011;25175;50.140;18.990;2022-07-17T01:32:59;10.75;;;6.20;;
39490;SDS011;25175;50.140;18.990;2022-07-17T01:36:01;15.73;;;6.28;;
39490;SDS011;25175;50.140;18.990;2022-07-17T01:39:04;12.38;;;6.20;;
39490;SDS011;25175;50.140;18.990;2022-07-17T01:42:07;14.48;;;6.88;;
39490;SDS011;25175;50.140;18.990;2022-07-17T01:45:09;12.68;;;6.65;;
39490;SDS011;25175;50.140;18.990;2022-07-17T01:48:22;10.43;;;5.95;;
39490;SDS011;25175;50.140;18.990;2022-07-17T01:51:25;11.10;;;5.95;;
39490;SDS011;25175;50.140;18.990;2022-07-17T01:54:28;11.15;;;5.93;;
39490;SDS011;25175;50.140;18.990;2022-07-17T01:57:30;10.80;;;6.18;;
39490;SDS011;25175;50.140;18.990;2022-07-17T02:00:33;13.15;;;5.93;;
39490;SDS011;25175;50.140;18.990;2022-07-17T02:03:35;10.82;;;5.45;;
39490;SDS011;25175;50.140;18.990;2022-07-17T02:06:38;17.80;;;5.93;;
39490;SDS011;25175;50.140;18.990;2022-07-17T02:09:41;10.80;;;6.30;;
39490;SDS011;25175;50.140;18.990;2022-07-17T02:12:43;12.45;;;5.95;;
39490;SDS011;25175;50.140;18.990;2022-07-17T02:15:45;11.15;;;6.18;;
39490;SDS011;25175;50.140;18.990;2022-07-17T02:18:47;10.07;;;6.00;;
39490;SDS011;25175;50.140;18.990;2022-07-17T02:21:50;10.20;;;5.80;;
39490;SDS011;25175;50.140;18.990;2022-07-17T02:24:53;10.57;;;6.35;;
39490;SDS011;25175;50.140;18.990;2022-07-17T02:27:55;14.77;;;6.63;;
39490;SDS011;25175;50.140;18.990;2022-07-17T02:30:57;13.32;;;5.95;;
39490;SDS011;25175;50.140;18.990;2022-07-17T02:33:59;11.30;;;6.43;;
39490;SDS011;25175;50.140;18.990;2022-07-17T02:37:01;11.23;;;6.30;;
39490;SDS011;25175;50.140;18.990;2022-07-17T02:40:05;13.80;;;6.03;;
39490;SDS011;25175;50.140;18.990;2022-07-17T02:43:08;13.50;;;6.95;;
39490;SDS011;25175;50.140;18.990;2022-07-17T02:46:11;12.40;;;6.45;;
39490;SDS011;25175;50.140;18.990;2022-07-17T02:49:14;18.35;;;7.38;;
39490;SDS011;25175;50.140;18.990;2022-07-17T02:52:16;14.57;;;6.78;;
39490;SDS011;25175;50.140;18.990;2022-07-17T02:55:20;19.33;;;7.65;;
39490;SDS011;25175;50.140;18.990;2022-07-17T02:58:23;15.85;;;7.32;;
39490;SDS011;25175;50.140;18.990;2022-07-17T03:01:25;12.90;;;8.05;;
39490;SDS011;25175;50.140;18.990;2022-07-17T03:04:28;20.85;;;8.15;;
39490;SDS011;25175;50.140;18.990;2022-07-17T03:07:30;13.82;;;7.50;;
39490;SDS011;25175;50.140;18.990;2022-07-17T03:10:34;13.60;;;6.82;;
39490;SDS011;25175;50.140;18.990;2022-07-17T03:13:37;13.73;;;7.03;;
39490;SDS011;25175;50.140;18.990;2022-07-17T03:16:39;16.70;;;6.90;;
39490;SDS011;25175;50.140;18.990;2022-07-17T03:19:41;12.70;;;6.30;;
39490;SDS011;25175;50.140;18.990;2022-07-17T03:22:43;18.83;;;6.18;;
39490;SDS011;25175;50.140;18.990;2022-07-17T03:25:47;13.82;;;6.90;;
39490;SDS011;25175;50.140;18.990;2022-07-17T03:28:50;12.98;;;6.63;;
39490;SDS011;25175;50.140;18.990;2022-07-17T03:31:52;14.27;;;6.22;;
39490;SDS011;25175;50.140;18.990;2022-07-17T03:34:54;14.00;;;6.13;;
39490;SDS011;25175;50.140;18.990;2022-07-17T03:37:56;10.48;;;6.00;;
39490;SDS011;25175;50.140;18.990;2022-07-17T03:41:00;14.40;;;6.30;;
39490;SDS011;25175;50.140;18.990;2022-07-17T03:44:02;13.07;;;6.43;;
39490;SDS011;25175;50.140;18.990;2022-07-17T03:47:04;17.17;;;6.22;;
39490;SDS011;25175;50.140;18.990;2022-07-17T03:50:07;12.43;;;5.93;;
39490;SDS011;25175;50.140;18.990;2022-07-17T03:53:09;10.98;;;6.38;;
39490;SDS011;25175;50.140;18.990;2022-07-17T03:56:12;14.35;;;5.65;;
39490;SDS011;25175;50.140;18.990;2022-07-17T03:59:15;10.77;;;5.65;;
39490;SDS011;25175;50.140;18.990;2022-07-17T04:02:17;13.75;;;6.50;;
39490;SDS011;25175;50.140;18.990;2022-07-17T04:05:19;11.90;;;5.90;;
39490;SDS011;25175;50.140;18.990;2022-07-17T04:08:21;11.93;;;5.65;;
39490;SDS011;25175;50.140;18.990;2022-07-17T04:11:25;9.98;;;5.50;;
39490;SDS011;25175;50.140;18.990;2022-07-17T04:14:27;15.88;;;6.22;;
39490;SDS011;25175;50.140;18.990;2022-07-17T04:17:29;15.07;;;5.70;;
39490;SDS011;25175;50.140;18.990;2022-07-17T04:20:31;13.63;;;5.15;;
39490;SDS011;25175;50.140;18.990;2022-07-17T04:23:34;14.93;;;5.30;;
39490;SDS011;25175;50.140;18.990;2022-07-17T04:26:38;13.18;;;5.20;;
39490;SDS011;25175;50.140;18.990;2022-07-17T04:29:40;12.38;;;4.90;;
39490;SDS011;25175;50.140;18.990;2022-07-17T04:32:42;10.70;;;4.80;;
39490;SDS011;25175;50.140;18.990;2022-07-17T04:35:44;13.02;;;4.25;;
39490;SDS011;25175;50.140;18.990;2022-07-17T04:38:47;9.10;;;4.45;;
39490;SDS011;25175;50.140;18.990;2022-07-17T04:41:50;10.40;;;3.55;;
39490;SDS011;25175;50.140;18.990;2022-07-17T04:44:53;7.93;;;4.05;;
39490;SDS011;25175;50.140;18.990;2022-07-17T04:47:55;10.93;;;4.03;;
39490;SDS011;25175;50.140;18.990;2022-07-17T04:50:57;10.50;;;4.40;;
39490;SDS011;25175;50.140;18.990;2022-07-17T04:53:59;13.73;;;4.75;;
39490;SDS011;25175;50.140;18.990;2022-07-17T04:57:03;7.95;;;4.40;;
39490;SDS011;25175;50.140;18.990;2022-07-17T05:00:06;10.63;;;4.60;;
39490;SDS011;25175;50.140;18.990;2022-07-17T05:03:10;11.10;;;4.20;;
39490;SDS011;25175;50.140;18.990;2022-07-17T05:06:12;20.70;;;4.25;;
39490;SDS011;25175;50.140;18.990;2022-07-17T05:09:14;8.90;;;4.20;;
39490;SDS011;25175;50.140;18.990;2022-07-17T05:12:18;15.27;;;4.13;;
39490;SDS011;25175;50.140;18.990;2022-07-17T05:15:20;10.40;;;3.70;;
39490;SDS011;25175;50.140;18.990;2022-07-17T05:18:22;9.77;;;3.50;;
39490;SDS011;25175;50.140;18.990;2022-07-17T05:21:24;7.82;;;3.45;;
39490;SDS011;25175;50.140;18.990;2022-07-17T05:24:27;9.93;;;3.72;;
39490;SDS011;25175;50.140;18.990;2022-07-17T05:27:30;11.68;;;4.00;;
39490;SDS011;25175;50.140;18.990;2022-07-17T05:30:33;11.23;;;3.72;;
39490;SDS011;25175;50.140;18.990;2022-07-17T05:33:35;10.30;;;3.72;;
39490;SDS011;25175;50.140;18.990;2022-07-17T05:36:37;7.35;;;3.05;;
39490;SDS011;25175;50.140;18.990;2022-07-17T05:39:39;5.03;;;1.70;;
39490;SDS011;25175;50.140;18.990;2022-07-17T05:42:43;5.85;;;1.50;;
39490;SDS011;25175;50.140;18.990;2022-07-17T05:45:45;7.72;;;1.98;;
39490;SDS011;25175;50.140;18.990;2022-07-17T05:48:47;12.23;;;1.58;;
39490;SDS011;25175;50.140;18.990;2022-07-17T05:51:49;6.18;;;1.73;;
39490;SDS011;25175;50.140;18.990;2022-07-17T05:54:51;6.43;;;1.50;;
39490;SDS011;25175;50.140;18.990;2022-07-17T05:57:55;8.07;;;1.73;;
39490;SDS011;25175;50.140;18.990;2022-07-17T06:00:57;5.40;;;1.70;;
39490;SDS011;25175;50.140;18.990;2022-07-17T06:04:00;5.32;;;1.58;;
39490;SDS011;25175;50.140;18.990;2022-07-17T06:07:02;4.10;;;1.67;;
39490;SDS011;25175;50.140;18.990;2022-07-17T06:10:04;6.82;;;2.00;;
39490;SDS011;25175;50.140;18.990;2022-07-17T06:13:09;5.35;;;1.98;;
39490;SDS011;25175;50.140;18.990;2022-07-17T06:16:11;5.13;;;1.90;;
39490;SDS011;25175;50.140;18.990;2022-07-17T06:19:14;6.55;;;1.80;;
39490;SDS011;25175;50.140;18.990;2022-07-17T06:22:16;8.27;;;1.70;;
39490;SDS011;25175;50.140;18.990;2022-07-17T06:25:18;6.35;;;1.50;;
39490;SDS011;25175;50.140;18.990;2022-07-17T06:28:21;4.88;;;1.63;;
39490;SDS011;25175;50.140;18.990;2022-07-17T06:31:23;5.63;;;1.50;;
39490;SDS011;25175;50.140;18.990;2022-07-17T06:34:26;9.55;;;1.63;;
39490;SDS011;25175;50.140;18.990;2022-07-17T06:37:28;5.32;;;1.50;;
39490;SDS011;25175;50.140;18.990;2022-07-17T06:40:30;5.88;;;1.75;;
39490;SDS011;25175;50.140;18.990;2022-07-17T06:43:33;7.35;;;1.70;;
39490;SDS011;25175;50.140;18.990;2022-07-17T06:46:35;5.85;;;1.80;;
39490;SDS011;25175;50.140;18.990;2022-07-17T06:49:38;8.57;;;1.73;;
39490;SDS011;25175;50.140;18.990;2022-07-17T06:52:40;6.43;;;1.25;;
39490;SDS011;25175;50.140;18.990;2022-07-17T06:55:42;5.97;;;1.40;;
39490;SDS011;25175;50.140;18.990;2022-07-17T06:58:46;7.15;;;1.77;;
39490;SDS011;25175;50.140;18.990;2022-07-17T07:01:48;3.90;;;1.20;;
39490;SDS011;25175;50.140;18.990;2022-07-17T07:04:50;5.10;;;1.48;;
39490;SDS011;25175;50.140;18.990;2022-07-17T07:07:52;4.65;;;1.42;;
39490;SDS011;25175;50.140;18.990;2022-07-17T07:10:55;3.65;;;1.30;;
39490;SDS011;25175;50.140;18.990;2022-07-17T07:13:58;5.70;;;1.38;;
39490;SDS011;25175;50.140;18.990;2022-07-17T07:17:01;6.50;;;1.48;;
39490;SDS011;25175;50.140;18.990;2022-07-17T07:20:03;7.40;;;1.25;;
39490;SDS011;25175;50.140;18.990;2022-07-17T07:23:06;8.80;;;1.73;;
39490;SDS011;25175;50.140;18.990;2022-07-17T07:26:08;5.55;;;1.48;;
39490;SDS011;25175;50.140;18.990;2022-07-17T07:29:12;8.10;;;1.20;;
39490;SDS011;25175;50.140;18.990;2022-07-17T07:32:14;9.98;;;1.55;;
39490;SDS011;25175;50.140;18.990;2022-07-17T07:35:17;9.13;;;1.52;;
39490;SDS011;25175;50.140;18.990;2022-07-17T07:38:19;6.43;;;1.25;;
39490;SDS011;25175;50.140;18.990;2022-07-17T07:41:21;6.78;;;1.35;;
39490;SDS011;25175;50.140;18.990;2022-07-17T07:44:25;4.95;;;1.40;;
39490;SDS011;25175;50.140;18.990;2022-07-17T07:47:27;8.57;;;1.40;;
39490;SDS011;25175;50.140;18.990;2022-07-17T07:50:29;5.60;;;1.20;;
39490;SDS011;25175;50.140;18.990;2022-07-17T07:53:31;6.13;;;1.20;;
39490;SDS011;25175;50.140;18.990;2022-07-17T07:56:33;5.60;;;1.20;;
39490;SDS011;25175;50.140;18.990;2022-07-17T07:59:38;6.88;;;1.67;;
39490;SDS011;25175;50.140;18.990;2022-07-17T08:02:40;9.88;;;1.90;;
39490;SDS011;25175;50.140;18.990;2022-07-17T08:05:42;4.43;;;0.95;;
39490;SDS011;25175;50.140;18.990;2022-07-17T08:08:45;4.13;;;1.08;;
39490;SDS011;25175;50.140;18.990;2022-07-17T08:11:47;3.88;;;0.80;;
39490;SDS011;25175;50.140;18.990;2022-07-17T08:14:50;6.47;;;1.20;;
39490;SDS011;25175;50.140;18.990;2022-07-17T08:17:53;5.55;;;1.17;;
39490;SDS011;25175;50.140;18.990;2022-07-17T08:20:56;5.32;;;1.20;;
39490;SDS011;25175;50.140;18.990;2022-07-17T08:23:58;5.68;;;1.20;;
39490;SDS011;25175;50.140;18.990;2022-07-17T08:27:00;6.97;;;1.10;;
39490;SDS011;25175;50.140;18.990;2022-07-17T08:30:04;4.28;;;1.08;;
39490;SDS011;25175;50.140;18.990;2022-07-17T08:33:08;7.13;;;1.40;;
39490;SDS011;25175;50.140;18.990;2022-07-17T08:36:11;9.57;;;1.17;;
39490;SDS011;25175;50.140;18.990;2022-07-17T08:39:13;3.33;;;0.82;;
39490;SDS011;25175;50.140;18.990;2022-07-17T08:42:15;3.03;;;0.90;;
39490;SDS011;25175;50.140;18.990;2022-07-17T08:45:19;2.08;;;0.85;;
39490;SDS011;25175;50.140;18.990;2022-07-17T08:48:21;3.95;;;1.00;;
39490;SDS011;25175;50.140;18.990;2022-07-17T08:51:29;4.38;;;1.00;;
39490;SDS011;25175;50.140;18.990;2022-07-17T08:54:32;2.92;;;1.10;;
39490;SDS011;25175;50.140;18.990;2022-07-17T08:57:36;9.30;;;1.13;;
39490;SDS011;25175;50.140;18.990;2022-07-17T09:00:40;3.17;;;1.15;;
39490;SDS011;25175;50.140;18.990;2022-07-17T09:03:52;4.07;;;1.40;;
39490;SDS011;25175;50.140;18.990;2022-07-17T09:06:58;3.67;;;0.90;;
39490;SDS011;25175;50.140;18.990;2022-07-17T09:10:03;1.95;;;0.77;;
39490;SDS011;25175;50.140;18.990;2022-07-17T09:13:14;5.90;;;0.90;;
39490;SDS011;25175;50.140;18.990;2022-07-17T09:16:20;3.47;;;1.05;;
39490;SDS011;25175;50.140;18.990;2022-07-17T09:19:26;3.50;;;0.98;;
39490;SDS011;25175;50.140;18.990;2022-07-17T09:22:29;8.25;;;1.13;;
39490;SDS011;25175;50.140;18.990;2022-07-17T09:25:35;5.28;;;0.98;;
39490;SDS011;25175;50.140;18.990;2022-07-17T09:28:44;3.10;;;1.30;;
39490;SDS011;25175;50.140;18.990;2022-07-17T09:31:51;4.07;;;0.80;;
39490;SDS011;25175;50.140;18.990;2022-07-17T09:34:54;2.63;;;0.85;;
39490;SDS011;25175;50.140;18.990;2022-07-17T09:37:58;5.65;;;0.90;;
39490;SDS011;25175;50.140;18.990;2022-07-17T09:41:01;7.10;;;1.30;;
39490;SDS011;25175;50.140;18.990;2022-07-17T09:44:17;5.22;;;1.20;;
39490;SDS011;25175;50.140;18.990;2022-07-17T09:47:20;5.28;;;1.02;;
39490;SDS011;25175;50.140;18.990;2022-07-17T09:50:23;5.28;;;0.90;;
39490;SDS011;25175;50.140;18.990;2022-07-17T09:53:28;1.70;;;0.75;;
39490;SDS011;25175;50.140;18.990;2022-07-17T09:56:33;5.97;;;1.30;;
39490;SDS011;25175;50.140;18.990;2022-07-17T09:59:36;2.92;;;0.85;;
39490;SDS011;25175;50.140;18.990;2022-07-17T10:02:41;1.98;;;0.70;;
39490;SDS011;25175;50.140;18.990;2022-07-17T10:05:43;2.95;;;1.08;;
39490;SDS011;25175;50.140;18.990;2022-07-17T10:08:46;2.90;;;0.75;;
39490;SDS011;25175;50.140;18.990;2022-07-17T10:11:49;7.63;;;0.90;;
39490;SDS011;25175;50.140;18.990;2022-07-17T10:14:52;1.95;;;0.70;;
39490;SDS011;25175;50.140;18.990;2022-07-17T10:18:06;5.68;;;1.13;;
39490;SDS011;25175;50.140;18.990;2022-07-17T10:21:13;4.60;;;1.10;;
39490;SDS011;25175;50.140;18.990;2022-07-17T10:24:17;3.70;;;1.00;;
39490;SDS011;25175;50.140;18.990;2022-07-17T10:27:22;3.05;;;0.90;;
39490;SDS011;25175;50.140;18.990;2022-07-17T10:33:31;4.00;;;0.90;;
39490;SDS011;25175;50.140;18.990;2022-07-17T10:36:34;3.78;;;0.93;;
39490;SDS011;25175;50.140;18.990;2022-07-17T10:39:37;3.80;;;0.82;;
39490;SDS011;25175;50.140;18.990;2022-07-17T10:42:40;3.35;;;1.05;;
39490;SDS011;25175;50.140;18.990;2022-07-17T10:46:00;4.78;;;1.10;;
39490;SDS011;25175;50.140;18.990;2022-07-17T10:49:04;8.00;;;1.02;;
39490;SDS011;25175;50.140;18.990;2022-07-17T10:52:08;3.65;;;0.80;;
39490;SDS011;25175;50.140;18.990;2022-07-17T10:55:17;5.82;;;1.08;;
39490;SDS011;25175;50.140;18.990;2022-07-17T10:58:21;2.25;;;0.68;;
39490;SDS011;25175;50.140;18.990;2022-07-17T11:01:25;3.97;;;0.70;;
39490;SDS011;25175;50.140;18.990;2022-07-17T11:04:36;2.28;;;0.60;;
39490;SDS011;25175;50.140;18.990;2022-07-17T11:07:53;5.10;;;0.80;;
39490;SDS011;25175;50.140;18.990;2022-07-17T11:10:58;3.20;;;0.95;;
39490;SDS011;25175;50.140;18.990;2022-07-17T11:14:11;2.13;;;0.82;;
39490;SDS011;25175;50.140;18.990;2022-07-17T11:17:18;3.20;;;0.60;;
39490;SDS011;25175;50.140;18.990;2022-07-17T11:20:21;3.63;;;0.63;;
39490;SDS011;25175;50.140;18.990;2022-07-17T11:23:25;2.35;;;0.65;;
39490;SDS011;25175;50.140;18.990;2022-07-17T11:26:28;3.72;;;0.63;;
39490;SDS011;25175;50.140;18.990;2022-07-17T11:29:35;3.70;;;0.60;;
39490;SDS011;25175;50.140;18.990;2022-07-17T11:32:38;4.82;;;1.08;;
39490;SDS011;25175;50.140;18.990;2022-07-17T11:35:44;1.92;;;0.70;;
39490;SDS011;25175;50.140;18.990;2022-07-17T11:38:48;3.90;;;0.70;;
39490;SDS011;25175;50.140;18.990;2022-07-17T11:41:51;3.35;;;0.70;;
39490;SDS011;25175;50.140;18.990;2022-07-17T11:44:55;3.17;;;0.90;;
39490;SDS011;25175;50.140;18.990;2022-07-17T11:48:00;5.07;;;0.93;;
39490;SDS011;25175;50.140;18.990;2022-07-17T11:51:04;2.50;;;0.60;;
39490;SDS011;25175;50.140;18.990;2022-07-17T11:54:07;2.20;;;0.80;;
39490;SDS011;25175;50.140;18.990;2022-07-17T11:57:11;4.63;;;1.15;;
39490;SDS011;25175;50.140;18.990;2022-07-17T12:00:14;5.15;;;0.70;;
39490;SDS011;25175;50.140;18.990;2022-07-17T12:03:24;2.85;;;0.70;;
39490;SDS011;25175;50.140;18.990;2022-07-17T12:06:28;4.53;;;0.68;;
39490;SDS011;25175;50.140;18.990;2022-07-17T12:09:32;3.53;;;0.98;;
39490;SDS011;25175;50.140;18.990;2022-07-17T12:12:35;5.97;;;0.80;;
39490;SDS011;25175;50.140;18.990;2022-07-17T12:15:38;2.05;;;0.70;;
39490;SDS011;25175;50.140;18.990;2022-07-17T12:18:41;5.85;;;0.70;;
39490;SDS011;25175;50.140;18.990;2022-07-17T12:21:52;5.18;;;0.90;;
39490;SDS011;25175;50.140;18.990;2022-07-17T12:24:57;3.05;;;0.80;;
39490;SDS011;25175;50.140;18.990;2022-07-17T12:27:59;4.57;;;0.68;;
39490;SDS011;25175;50.140;18.990;2022-07-17T12:31:01;4.25;;;1.10;;
39490;SDS011;25175;50.140;18.990;2022-07-17T12:34:03;5.88;;;1.20;;
39490;SDS011;25175;50.140;18.990;2022-07-17T12:37:07;5.15;;;0.70;;
39490;SDS011;25175;50.140;18.990;2022-07-17T12:40:09;5.20;;;1.10;;
39490;SDS011;25175;50.140;18.990;2022-07-17T12:43:11;6.00;;;0.90;;
39490;SDS011;25175;50.140;18.990;2022-07-17T12:46:14;2.97;;;0.80;;
39490;SDS011;25175;50.140;18.990;2022-07-17T12:49:17;1.98;;;0.68;;
39490;SDS011;25175;50.140;18.990;2022-07-17T12:52:21;3.95;;;0.70;;
39490;SDS011;25175;50.140;18.990;2022-07-17T12:55:23;4.60;;;0.75;;
39490;SDS011;25175;50.140;18.990;2022-07-17T12:58:25;3.30;;;0.90;;
39490;SDS011;25175;50.140;18.990;2022-07-17T13:01:28;1.73;;;0.77;;
39490;SDS011;25175;50.140;18.990;2022-07-17T13:04:30;3.08;;;0.80;;
39490;SDS011;25175;50.140;18.990;2022-07-17T13:07:34;5.47;;;0.95;;
39490;SDS011;25175;50.140;18.990;2022-07-17T13:10:36;1.48;;;0.65;;
39490;SDS011;25175;50.140;18.990;2022-07-17T13:13:39;3.33;;;0.70;;
39490;SDS011;25175;50.140;18.990;2022-07-17T13:16:41;2.47;;;0.80;;
39490;SDS011;25175;50.140;18.990;2022-07-17T13:19:43;5.22;;;1.00;;
39490;SDS011;25175;50.140;18.990;2022-07-17T13:22:47;3.45;;;0.80;;
39490;SDS011;25175;50.140;18.990;2022-07-17T13:25:49;4.78;;;1.00;;
39490;SDS011;25175;50.140;18.990;2022-07-17T13:28:51;2.55;;;0.60;;
39490;SDS011;25175;50.140;18.990;2022-07-17T13:31:54;1.27;;;0.50;;
39490;SDS011;25175;50.140;18.990;2022-07-17T13:34:56;2.25;;;0.80;;
39490;SDS011;25175;50.140;18.990;2022-07-17T13:38:00;7.13;;;0.80;;
39490;SDS011;25175;50.140;18.990;2022-07-17T13:41:03;3.05;;;0.60;;
39490;SDS011;25175;50.140;18.990;2022-07-17T13:44:07;3.10;;;0.80;;
39490;SDS011;25175;50.140;18.990;2022-07-17T13:47:09;8.88;;;0.80;;
39490;SDS011;25175;50.140;18.990;2022-07-17T13:50:13;5.10;;;0.70;;
39490;SDS011;25175;50.140;18.990;2022-07-17T13:53:17;2.10;;;0.60;;
39490;SDS011;25175;50.140;18.990;2022-07-17T13:56:19;4.00;;;0.70;;
39490;SDS011;25175;50.140;18.990;2022-07-17T13:59:22;6.28;;;0.80;;
39490;SDS011;25175;50.140;18.990;2022-07-17T14:02:24;5.30;;;1.00;;
39490;SDS011;25175;50.140;18.990;2022-07-17T14:05:26;4.20;;;0.80;;
39490;SDS011;25175;50.140;18.990;2022-07-17T14:08:30;4.25;;;1.00;;
39490;SDS011;25175;50.140;18.990;2022-07-17T14:11:32;4.90;;;0.90;;
39490;SDS011;25175;50.140;18.990;2022-07-17T14:14:34;2.53;;;0.70;;
39490;SDS011;25175;50.140;18.990;2022-07-17T14:17:36;7.20;;;0.63;;
39490;SDS011;25175;50.140;18.990;2022-07-17T14:20:38;3.35;;;0.80;;
39490;SDS011;25175;50.140;18.990;2022-07-17T14:23:42;1.83;;;0.60;;
39490;SDS011;25175;50.140;18.990;2022-07-17T14:26:45;4.65;;;0.80;;
39490;SDS011;25175;50.140;18.990;2022-07-17T14:29:48;2.90;;;0.52;;
39490;SDS011;25175;50.140;18.990;2022-07-17T14:32:50;3.53;;;0.80;;
39490;SDS011;25175;50.140;18.990;2022-07-17T14:35:53;2.22;;;0.60;;
39490;SDS011;25175;50.140;18.990;2022-07-17T14:38:56;1.60;;;0.50;;
39490;SDS011;25175;50.140;18.990;2022-07-17T14:41:58;3.05;;;0.52;;
39490;SDS011;25175;50.140;18.990;2022-07-17T14:45:01;5.43;;;0.70;;
39490;SDS011;25175;50.140;18.990;2022-07-17T14:48:03;2.70;;;0.90;;
39490;SDS011;25175;50.140;18.990;2022-07-17T14:51:05;4.93;;;0.70;;
39490;SDS011;25175;50.140;18.990;2022-07-17T14:54:09;2.42;;;0.70;;
39490;SDS011;25175;50.140;18.990;2022-07-17T14:57:11;2.65;;;0.73;;
39490;SDS011;25175;50.140;18.990;2022-07-17T15:00:13;3.53;;;0.70;;
39490;SDS011;25175;50.140;18.990;2022-07-17T15:03:16;1.73;;;0.65;;
39490;SDS011;25175;50.140;18.990;2022-07-17T15:06:18;2.65;;;0.70;;
39490;SDS011;25175;50.140;18.990;2022-07-17T15:09:22;5.53;;;0.88;;
39490;SDS011;25175;50.140;18.990;2022-07-17T15:12:24;2.08;;;0.65;;
39490;SDS011;25175;50.140;18.990;2022-07-17T15:15:26;4.85;;;0.63;;
39490;SDS011;25175;50.140;18.990;2022-07-17T15:18:29;4.88;;;0.60;;
39490;SDS011;25175;50.140;18.990;2022-07-17T15:21:31;2.13;;;0.55;;
39490;SDS011;25175;50.140;18.990;2022-07-17T15:24:35;6.72;;;0.70;;
39490;SDS011;25175;50.140;18.990;2022-07-17T15:27:37;3.55;;;0.70;;
39490;SDS011;25175;50.140;18.990;2022-07-17T15:30:39;7.22;;;1.20;;
39490;SDS011;25175;50.140;18.990;2022-07-17T15:33:41;4.47;;;0.63;;
39490;SDS011;25175;50.140;18.990;2022-07-17T15:36:44;6.05;;;0.80;;
39490;SDS011;25175;50.140;18.990;2022-07-17T15:39:47;2.20;;;0.80;;
39490;SDS011;25175;50.140;18.990;2022-07-17T15:42:49;3.85;;;0.75;;
39490;SDS011;25175;50.140;18.990;2022-07-17T15:45:53;2.75;;;1.00;;
39490;SDS011;25175;50.140;18.990;2022-07-17T15:48:55;7.72;;;1.23;;
39490;SDS011;25175;50.140;18.990;2022-07-17T15:51:58;4.13;;;0.90;;
39490;SDS011;25175;50.140;18.990;2022-07-17T15:55:02;4.60;;;0.82;;
39490;SDS011;25175;50.140;18.990;2022-07-17T15:58:04;5.88;;;0.93;;
39490;SDS011;25175;50.140;18.990;2022-07-17T16:01:07;3.03;;;0.70;;
39490;SDS011;25175;50.140;18.990;2022-07-17T16:04:09;3.33;;;0.75;;
39490;SDS011;25175;50.140;18.990;2022-07-17T16:07:11;2.42;;;0.80;;
39490;SDS011;25175;50.140;18.990;2022-07-17T16:10:15;4.80;;;0.70;;
39490;SDS011;25175;50.140;18.990;2022-07-17T16:13:17;3.20;;;0.70;;
39490;SDS011;25175;50.140;18.990;2022-07-17T16:16:20;2.45;;;0.80;;
39490;SDS011;25175;50.140;18.990;2022-07-17T16:19:22;3.35;;;0.80;;
39490;SDS011;25175;50.140;18.990;2022-07-17T16:22:24;2.08;;;0.73;;
39490;SDS011;25175;50.140;18.990;2022-07-17T16:25:28;2.53;;;0.70;;
39490;SDS011;25175;50.140;18.990;2022-07-17T16:28:30;3.47;;;1.00;;
39490;SDS011;25175;50.140;18.990;2022-07-17T16:31:32;4.85;;;1.00;;
39490;SDS011;25175;50.140;18.990;2022-07-17T16:34:34;4.10;;;0.98;;
39490;SDS011;25175;50.140;18.990;2022-07-17T16:37:37;2.08;;;0.63;;
39490;SDS011;25175;50.140;18.990;2022-07-17T16:40:40;1.55;;;0.70;;
39490;SDS011;25175;50.140;18.990;2022-07-17T16:43:43;3.90;;;1.13;;
39490;SDS011;25175;50.140;18.990;2022-07-17T16:46:45;4.28;;;1.13;;
39490;SDS011;25175;50.140;18.990;2022-07-17T16:49:47;3.78;;;1.55;;
39490;SDS011;25175;50.140;18.990;2022-07-17T16:52:49;2.00;;;0.80;;
39490;SDS011;25175;50.140;18.990;2022-07-17T16:55:53;2.97;;;0.93;;
39490;SDS011;25175;50.140;18.990;2022-07-17T16:58:55;3.97;;;0.80;;
39490;SDS011;25175;50.140;18.990;2022-07-17T17:01:57;1.83;;;0.80;;
39490;SDS011;25175;50.140;18.990;2022-07-17T17:04:59;3.30;;;0.88;;
39490;SDS011;25175;50.140;18.990;2022-07-17T17:08:01;2.05;;;0.73;;
39490;SDS011;25175;50.140;18.990;2022-07-17T17:11:06;3.78;;;0.80;;
39490;SDS011;25175;50.140;18.990;2022-07-17T17:14:08;2.03;;;0.80;;
39490;SDS011;25175;50.140;18.990;2022-07-17T17:17:10;4.35;;;0.90;;
39490;SDS011;25175;50.140;18.990;2022-07-17T17:20:12;3.70;;;0.80;;
39490;SDS011;25175;50.140;18.990;2022-07-17T17:23:15;3.97;;;0.80;;
39490;SDS011;25175;50.140;18.990;2022-07-17T17:26:19;3.47;;;0.93;;
39490;SDS011;25175;50.140;18.990;2022-07-17T17:29:22;2.28;;;0.90;;
39490;SDS011;25175;50.140;18.990;2022-07-17T17:32:24;3.45;;;0.82;;
39490;SDS011;25175;50.140;18.990;2022-07-17T17:35:26;2.70;;;0.90;;
39490;SDS011;25175;50.140;18.990;2022-07-17T17:38:28;3.05;;;0.93;;
39490;SDS011;25175;50.140;18.990;2022-07-17T17:41:33;4.45;;;0.95;;
39490;SDS011;25175;50.140;18.990;2022-07-17T17:44:35;2.88;;;1.10;;
39490;SDS011;25175;50.140;18.990;2022-07-17T17:47:37;5.47;;;1.10;;
39490;SDS011;25175;50.140;18.990;2022-07-17T17:50:39;3.00;;;1.05;;
39490;SDS011;25175;50.140;18.990;2022-07-17T17:53:42;2.60;;;1.20;;
39490;SDS011;25175;50.140;18.990;2022-07-17T17:56:46;2.83;;;1.20;;
39490;SDS011;25175;50.140;18.990;2022-07-17T17:59:48;5.28;;;1.15;;
39490;SDS011;25175;50.140;18.990;2022-07-17T18:02:51;3.88;;;1.10;;
39490;SDS011;25175;50.140;18.990;2022-07-17T18:05:53;4.60;;;1.25;;